Aérodrome :
LOGIN :

S'inscrire | Disclaimer

   EN    FR    IT 

 










Légende :    VFR   VFR Marginal   IFR   IFR Intensif   IFR Très Intensif
Visi : 
Plafond : 
>= 8 km
>= 3000ft
5 à 8 km
1000 à 3000 ft
1500m à 5 km
500 à 1000 ft
800 à 1500m
200 à 500 ft
< 800m
< 200 ft
Symboles :   Orages  Brouillard  Fortes neiges  Fortes précipitations  Vent > 20 kt
SIGMETs :   Divers  Orages  Givrage  Turbulence  Onde Orograph.  Cendres Volcan.







- Altitude de l'aérodrome : 219 ft
- Code IATA : DNR
- Voir les cartes d'approche


LFRD - Dinard

DERNIER METAR :
  • 171400Z AUTO VRB03KT 9999 SCT028 BKN037 16/11 Q1018 NOSIG

METARs EXPIRÉS :
  • 171330Z AUTO 07004KT 050V110 9999 OVC028 16/10 Q1018 NOSIG
  • 171300Z AUTO VRB03KT 9999 BKN027 17/10 Q1018 NOSIG
  • 171230Z AUTO 20004KT 160V230 9999 BKN026 17/10 Q1018 NOSIG
  • 171200Z AUTO 23003KT 170V320 9999 SCT023 17/11 Q1018 NOSIG
  • 171130Z AUTO 18005KT 140V220 9999 FEW019 16/11 Q1019 NOSIG

TAF TAF LFRD
Valide du 17 à 12h jusqu'au 18 à 12h UTC


171100Z 1712/1812 18004KT 9999 SCT020
BECMG 1718/1721 03010KT
ATIS : +33 2 99 16 81 50
Pas de NOTAMs connus pour ce terrain.



MET'MAP, la Météo Aéronautique d'un coup d'oeil ! - Copyright ORBIFLY Décembre 2007 - Disclaimer

ORBIFLY MET'MAP TEAM :

Programmation & Développement : Alexandra Zaïnal
Conception & Développement : Baudouin d'Aumeries
Co-Programmation & Développement : Marc-Olivier Méhu
Soutien technique & logistique : Manuel Goepfert

Contact : metmap@orbifly.com




SOURCES & CREDITS :

   NOAA